首页
METAR-TAF:

METAR-TAF

机场 :

长岛麦克阿瑟机场

Islip, 紐約州, 美国

纬度: 40-47-38N, 经度: 073-06-06W, 海拔: 30米

当前天气观测

该预报发布于39分钟前的04:56 UTC
风速17节,风向,有时为27节阵风
温度 7°C
湿度 93%
气压 1008 hPa
能見度: 9.7公里
阴天层高于1000英尺
小雨, 轻雾

METAR: KISP 160456Z 09017G27KT 6SM -RA BR OVC010 07/06 A2976 RMK AO2 PK WND 10033/0416 SLP079 LAST P0001 T00670056 400781011

时间: 00:35 (05:35 UTC)

预报

该预报发布于1小时和6分钟前的04:29 UTC
预报有效从16日的 04点(UTC)到 16日的 24点(UTC)
风速18节,风向,有时为29节阵风
能見度: 10公里
阴天层高于1200英尺
小雨
从 16日的 0500点(UTC)
风速17节,风向东转东北,有时为26节阵风
能見度: 1.6公里
阴天层高于800英尺
雨, 轻雾
从 16日的 1000点(UTC)
风速12节,风向东转东北,有时为20节阵风
能見度: 3.2公里
阴天层高于800英尺
雨, 轻雾
从 16日的 1200点(UTC)
风速8节,风向
能見度: 4.8公里
散云层高于700英尺
阴天层高于1000英尺
小雨, 轻雾
从 16日的 1500点(UTC)
风速8节,风向南转西南
能見度: 6.4公里
阴天层高于1000英尺
小雨
从 16日的 1900点(UTC)
风速11节,风向西转西南
能見度: 10公里
阴天层高于5000英尺

TAF: KISP 160429Z 1604/1624 10018G29KT P6SM -RA OVC012 FM160500 06017G26KT 1SM RA BR OVC008 FM161000 06012G20KT 2SM RA BR OVC008 FM161200 09008KT 3SM -RA BR SCT007 OVC010 FM161500 20008KT 4SM -RA OVC010 FM161900 24011KT P6SM OVC050

超过4000个机场的气象观测和天气预报(METAR&TAF报告)。

可查询的气象台以黄色和红色小点在地图上表示。

将鼠标移到小点上方,可查看气象台名称。

然后点击查看天气观测和预报。

如需切换地图:点击带黑十字的绿色按钮放大地图;点击带横线的绿色按钮缩小地图;或者点击绿色箭头查看邻近地区的地图。


METAR-TAF: